Time;durP1;ratioP1;P1;durP2;ratioP2;P2;SDS_P1;SDS_P2;PMS_P1;PMS_P2;Temp;Humidity;BMP_temperature;BMP_pressure;BME280_temperature;BME280_humidity;BME280_pressure;Samples;Min_cycle;Max_cycle;Signal;HPM_P1;HPM_P2
2023/10/18 00:00:34;;;;;;;16.40;10.60;;;;;;;4.85;100.00;100687.33;88305;276;137086;-70
2023/10/18 00:02:37;;;;;;;14.10;10.20;;;;;;;4.84;100.00;100680.70;88454;276;25236;-78
2023/10/18 00:04:38;;;;;;;15.50;9.30;;;;;;;4.83;100.00;100680.23;88404;283;137227;-70
2023/10/18 00:06:40;;;;;;;11.10;9.00;;;;;;;4.83;100.00;100681.30;88565;282;22537;-72
2023/10/18 00:08:46;;;;;;;15.40;9.10;;;;;;;4.84;100.00;100680.52;88395;275;137957;-69
2023/10/18 00:10:50;;;;;;;12.70;8.20;;;;;;;4.84;100.00;100679.79;88439;284;22577;-70
2023/10/18 00:12:53;;;;;;;9.00;7.40;;;;;;;4.84;100.00;100676.30;88382;283;136989;-69
2023/10/18 00:14:57;;;;;;;15.40;8.10;;;;;;;4.85;100.00;100675.35;88463;276;22540;-74
2023/10/18 00:16:59;;;;;;;11.00;7.50;;;;;;;4.86;100.00;100675.73;88387;274;136816;-71
2023/10/18 00:19:01;;;;;;;9.20;7.40;;;;;;;4.86;100.00;100674.35;88403;282;23722;-70
2023/10/18 00:21:05;;;;;;;14.30;8.40;;;;;;;4.88;100.00;100670.66;88351;274;136698;-70
2023/10/18 00:23:07;;;;;;;11.20;8.60;;;;;;;4.87;100.00;100671.55;88537;282;22537;-76
2023/10/18 00:25:10;;;;;;;11.50;8.80;;;;;;;4.89;100.00;100673.58;88375;275;136930;-71
2023/10/18 00:27:13;;;;;;;10.00;8.30;;;;;;;4.91;100.00;100670.75;88578;274;25241;-68
2023/10/18 00:29:15;;;;;;;12.70;8.90;;;;;;;4.93;100.00;100675.89;88281;277;136979;-71
2023/10/18 00:31:20;;;;;;;12.60;9.00;;;;;;;4.95;100.00;100671.98;88533;284;25261;-69
2023/10/18 00:33:22;;;;;;;11.10;8.10;;;;;;;4.96;100.00;100672.59;88288;276;136941;-74
2023/10/18 00:35:31;;;;;;;9.80;7.70;;;;;;;4.95;100.00;100672.54;88484;284;22627;-71
2023/10/18 00:37:33;;;;;;;9.30;7.80;;;;;;;4.94;100.00;100669.42;88440;276;138840;-70
2023/10/18 00:39:35;;;;;;;12.30;8.20;;;;;;;4.92;100.00;100671.88;88380;281;25313;-72
2023/10/18 00:41:43;;;;;;;8.40;6.80;;;;;;;4.89;100.00;100673.35;88407;276;137040;-71
2023/10/18 00:43:44;;;;;;;10.60;8.20;;;;;;;4.87;100.00;100670.23;88542;279;25175;-70
2023/10/18 00:45:50;;;;;;;7.40;6.60;;;;;;;4.85;100.00;100665.30;88250;280;137007;-70
2023/10/18 00:47:54;;;;;;;12.00;7.00;;;;;;;4.85;100.00;100661.21;88533;283;25128;-73
2023/10/18 00:49:58;;;;;;;8.70;6.30;;;;;;;4.85;100.00;100662.98;88289;282;137077;-71
2023/10/18 00:52:00;;;;;;;9.50;7.50;;;;;;;4.86;100.00;100660.94;88487;282;26299;-72
2023/10/18 00:54:03;;;;;;;12.00;6.20;;;;;;;4.87;100.00;100657.37;88340;284;136567;-71
2023/10/18 00:56:06;;;;;;;8.70;6.60;;;;;;;4.87;100.00;100660.52;88335;276;137427;-71
2023/10/18 00:58:11;;;;;;;11.10;6.50;;;;;;;4.88;100.00;100656.77;88536;274;22543;-73
2023/10/18 01:00:19;;;;;;;;;;;;;;;4.86;100.00;100656.17;88293;279;137183;-69
2023/10/18 01:02:35;;;;;;;8.30;6.30;;;;;;;4.86;100.00;100659.19;88402;283;23043;-71
2023/10/18 01:04:37;;;;;;;9.80;6.40;;;;;;;4.84;100.00;100659.09;88404;283;136902;-70
2023/10/18 01:06:45;;;;;;;10.30;6.70;;;;;;;4.82;100.00;100664.48;88372;276;25256;-71
2023/10/18 01:08:48;;;;;;;9.40;6.80;;;;;;;4.81;100.00;100662.34;88407;282;137190;-73
2023/10/18 01:10:54;;;;;;;13.80;8.00;;;;;;;4.80;100.00;100664.38;88530;284;24064;-70
2023/10/18 01:12:56;;;;;;;8.80;6.70;;;;;;;4.79;100.00;100660.05;88335;283;138456;-69
2023/10/18 01:14:57;;;;;;;9.50;6.60;;;;;;;4.78;100.00;100661.04;88314;283;25138;-70
2023/10/18 01:17:01;;;;;;;10.60;6.90;;;;;;;4.77;100.00;100666.34;88509;283;136950;-71
2023/10/18 01:19:08;;;;;;;7.10;5.40;;;;;;;4.78;100.00;100665.98;88452;284;25121;-72
2023/10/18 01:21:16;;;;;;;9.10;6.30;;;;;;;4.79;100.00;100664.09;88322;276;136751;-67
2023/10/18 01:23:19;;;;;;;8.30;6.70;;;;;;;4.82;100.00;100663.29;88451;276;26362;-70
2023/10/18 01:25:22;;;;;;;7.70;6.70;;;;;;;4.83;100.00;100663.53;88394;275;136086;-70
2023/10/18 01:27:24;;;;;;;7.80;5.90;;;;;;;4.84;100.00;100664.81;88644;282;22688;-70
2023/10/18 01:29:26;;;;;;;8.30;6.30;;;;;;;4.85;100.00;100662.98;88320;281;136643;-69
2023/10/18 01:31:31;;;;;;;8.80;6.70;;;;;;;4.84;100.00;100663.10;88569;276;22552;-69
2023/10/18 01:33:43;;;;;;;8.70;7.10;;;;;;;4.84;100.00;100663.48;88472;279;137732;-67
2023/10/18 01:35:53;;;;;;;7.60;6.30;;;;;;;4.85;100.00;100659.27;88433;276;26423;-69
2023/10/18 01:37:57;;;;;;;8.50;5.70;;;;;;;4.85;100.00;100659.16;88296;275;136227;-69
2023/10/18 01:40:20;;;;;;;10.30;6.70;;;;;;;4.85;100.00;100659.33;88461;276;22586;-69
2023/10/18 01:44:06;;;;;;;10.20;7.50;;;;;;;4.75;100.00;100654.48;86913;303;602641;-64
2023/10/18 01:46:10;;;;;;;7.70;5.70;;;;;;;4.74;100.00;100655.21;87762;288;26819;-71
2023/10/18 01:48:17;;;;;;;7.40;5.70;;;;;;;4.76;100.00;100655.23;87774;292;137216;-65
2023/10/18 01:50:21;;;;;;;8.00;5.60;;;;;;;4.78;100.00;100657.14;87824;288;25248;-72
2023/10/18 01:52:24;;;;;;;10.40;5.50;;;;;;;4.78;100.00;100658.76;87818;295;136243;-70
2023/10/18 01:54:26;;;;;;;8.40;4.80;;;;;;;4.78;100.00;100659.64;87864;294;22546;-68
2023/10/18 01:56:28;;;;;;;8.10;5.30;;;;;;;4.76;100.00;100664.69;88112;286;137042;-72
2023/10/18 01:58:32;;;;;;;8.10;5.10;;;;;;;4.77;100.00;100663.23;87654;280;639458;-70
2023/10/18 02:00:37;;;;;;;6.10;5.20;;;;;;;4.77;100.00;100664.30;87971;288;136341;-70
2023/10/18 02:02:39;;;;;;;5.50;5.00;;;;;;;4.76;100.00;100664.68;88095;286;26251;-67
2023/10/18 02:04:42;;;;;;;8.10;6.90;;;;;;;4.75;100.00;100661.30;88046;286;137588;-71
2023/10/18 02:06:59;;;;;;;8.10;6.10;;;;;;;4.75;100.00;100665.95;88292;287;24031;-73
2023/10/18 02:09:03;;;;;;;5.70;5.10;;;;;;;4.75;100.00;100662.36;88273;286;136315;-67
2023/10/18 02:11:07;;;;;;;6.30;5.60;;;;;;;4.74;100.00;100659.97;88416;286;22697;-68
2023/10/18 02:13:15;;;;;;;8.70;6.60;;;;;;;4.73;100.00;100657.65;88148;287;137832;-73
2023/10/18 02:15:17;;;;;;;6.50;5.90;;;;;;;4.70;100.00;100654.73;88237;280;26183;-72
2023/10/18 02:17:21;;;;;;;6.50;5.80;;;;;;;4.68;100.00;100657.51;88312;286;136828;-72
2023/10/18 02:19:24;;;;;;;10.90;6.80;;;;;;;4.67;100.00;100655.89;88953;286;23353;-69
2023/10/18 02:21:27;;;;;;;8.60;7.00;;;;;;;4.65;100.00;100659.90;89151;285;136605;-69
2023/10/18 02:23:34;;;;;;;8.20;7.20;;;;;;;4.65;100.00;100660.45;89354;282;23058;-68
2023/10/18 02:25:47;;;;;;;8.20;6.50;;;;;;;4.66;100.00;100655.39;89227;278;136482;-70
2023/10/18 02:27:51;;;;;;;7.60;6.80;;;;;;;4.67;100.00;100655.16;88364;285;22628;-73
2023/10/18 02:29:53;;;;;;;10.00;6.50;;;;;;;4.66;100.00;100654.37;88257;285;136520;-72
2023/10/18 02:32:02;;;;;;;10.50;6.70;;;;;;;4.66;100.00;100653.37;88277;283;25156;-71
2023/10/18 02:34:06;;;;;;;7.20;5.70;;;;;;;4.66;100.00;100651.71;88352;280;25179;-69
2023/10/18 02:36:38;;;;;;;8.30;6.80;;;;;;;4.67;100.00;100650.27;88180;286;136961;-70
2023/10/18 02:38:41;;;;;;;8.90;6.70;;;;;;;4.67;100.00;100651.61;88366;284;25178;-69
2023/10/18 02:40:43;;;;;;;6.70;6.00;;;;;;;4.68;100.00;100645.39;88308;278;136146;-70
2023/10/18 02:42:45;;;;;;;10.80;8.30;;;;;;;4.69;100.00;100644.41;88280;282;22549;-70
2023/10/18 02:44:50;;;;;;;7.60;6.50;;;;;;;4.70;100.00;100645.02;88155;287;137187;-69
2023/10/18 02:47:08;;;;;;;11.40;6.90;;;;;;;4.72;100.00;100643.15;88210;283;25090;-68
2023/10/18 02:49:09;;;;;;;8.50;6.50;;;;;;;4.73;100.00;100640.51;88229;286;137745;-71
2023/10/18 02:51:14;;;;;;;9.80;8.00;;;;;;;4.74;100.00;100639.59;88364;282;25405;-72
2023/10/18 02:53:17;;;;;;;8.30;6.70;;;;;;;4.75;100.00;100641.45;88282;282;137893;-70
2023/10/18 02:55:20;;;;;;;8.70;6.40;;;;;;;4.74;100.00;100639.04;88295;286;24030;-70
2023/10/18 02:57:24;;;;;;;10.20;8.00;;;;;;;4.73;100.00;100638.25;88304;276;136335;-72
2023/10/18 02:59:27;;;;;;;10.40;8.30;;;;;;;4.72;100.00;100636.39;88485;283;24925;-71
2023/10/18 03:01:30;;;;;;;9.90;7.20;;;;;;;4.71;100.00;100634.56;88328;276;138571;-71
2023/10/18 03:03:33;;;;;;;8.90;7.40;;;;;;;4.70;100.00;100633.59;88525;275;22534;-71
2023/10/18 03:05:40;;;;;;;10.00;7.50;;;;;;;4.71;100.00;100630.38;88300;275;136619;-69
2023/10/18 03:07:43;;;;;;;9.60;7.80;;;;;;;4.70;100.00;100629.70;88504;279;22537;-70
2023/10/18 03:09:49;;;;;;;9.20;7.90;;;;;;;4.70;100.00;100626.70;88493;275;136316;-70
2023/10/18 03:11:55;;;;;;;12.20;7.60;;;;;;;4.71;100.00;100629.29;88391;279;25171;-71
2023/10/18 03:13:57;;;;;;;15.10;9.20;;;;;;;4.71;100.00;100628.95;88722;274;136372;-67
2023/10/18 03:16:05;;;;;;;12.60;9.60;;;;;;;4.71;100.00;100625.39;88774;283;25179;-65
2023/10/18 03:18:15;;;;;;;13.00;10.20;;;;;;;4.71;100.00;100623.61;88530;275;23746;-71
2023/10/18 03:20:23;;;;;;;14.50;11.00;;;;;;;4.72;100.00;100622.16;88331;282;138651;-69
2023/10/18 03:22:31;;;;;;;16.10;11.70;;;;;;;4.71;100.00;100621.90;88525;279;22543;-71
2023/10/18 03:24:36;;;;;;;13.00;9.80;;;;;;;4.69;100.00;100616.98;88283;279;136909;-71
2023/10/18 03:26:40;;;;;;;14.30;11.40;;;;;;;4.67;100.00;100618.92;88480;280;22719;-72
2023/10/18 03:28:43;;;;;;;16.00;10.20;;;;;;;4.67;100.00;100617.36;88338;279;137235;-71
2023/10/18 03:30:45;;;;;;;12.10;9.80;;;;;;;4.67;100.00;100615.41;88455;279;25141;-71
2023/10/18 03:32:51;;;;;;;13.60;10.10;;;;;;;4.66;100.00;100618.68;88410;276;138528;-71
2023/10/18 03:34:53;;;;;;;11.70;9.00;;;;;;;4.64;100.00;100617.04;88424;275;24908;-69
2023/10/18 03:36:56;;;;;;;11.50;8.90;;;;;;;4.63;100.00;100617.13;88345;279;136772;-72
2023/10/18 03:39:00;;;;;;;16.00;11.50;;;;;;;4.63;100.00;100621.00;88573;275;22537;-72
2023/10/18 03:41:07;;;;;;;17.20;10.80;;;;;;;4.62;100.00;100619.38;88441;282;136822;-68
2023/10/18 03:43:09;;;;;;;10.90;8.90;;;;;;;4.61;100.00;100618.39;88506;282;25574;-66
2023/10/18 03:45:11;;;;;;;15.60;10.90;;;;;;;4.60;100.00;100618.99;88471;279;136497;-67
2023/10/18 03:47:24;;;;;;;13.00;11.00;;;;;;;4.60;100.00;100621.47;88572;274;22643;-72
2023/10/18 03:49:33;;;;;;;12.50;9.70;;;;;;;4.60;100.00;100620.67;88241;283;137444;-69
2023/10/18 03:51:37;;;;;;;14.60;10.80;;;;;;;4.59;100.00;100617.69;88447;279;23749;-71
2023/10/18 03:53:39;;;;;;;14.90;10.70;;;;;;;4.58;100.00;100614.13;88288;277;137864;-70
2023/10/18 03:55:42;;;;;;;12.80;10.00;;;;;;;4.57;100.00;100615.41;88566;282;22696;-72
2023/10/18 03:57:45;;;;;;;15.50;11.80;;;;;;;4.55;100.00;100615.98;88537;281;136624;-71
2023/10/18 03:59:48;;;;;;;12.90;9.90;;;;;;;4.53;100.00;100613.04;88410;275;22723;-70
2023/10/18 04:04:18;;;;;;;14.60;10.80;;;;;;;4.44;100.00;100614.20;88312;280;138451;-71
2023/10/18 04:06:28;;;;;;;17.40;12.40;;;;;;;4.40;100.00;100616.98;88532;282;25211;-69
2023/10/18 04:08:31;;;;;;;19.10;13.70;;;;;;;4.36;100.00;100618.93;88272;279;137241;-73
2023/10/18 04:10:36;;;;;;;20.50;13.50;;;;;;;4.33;100.00;100620.79;88325;282;22599;-71
2023/10/18 04:12:40;;;;;;;19.80;14.60;;;;;;;4.32;100.00;100623.23;88234;279;136944;-71
2023/10/18 04:14:52;;;;;;;23.00;15.10;;;;;;;4.28;100.00;100620.58;88385;275;25012;-70
2023/10/18 04:16:57;;;;;;;18.90;13.20;;;;;;;4.26;100.00;100621.63;88184;278;137856;-73
2023/10/18 04:18:58;;;;;;;20.80;13.90;;;;;;;4.23;100.00;100622.40;88285;275;24170;-71
2023/10/18 04:21:05;;;;;;;19.00;14.00;;;;;;;4.21;100.00;100619.45;88193;274;137001;-72
2023/10/18 04:23:20;;;;;;;24.00;16.40;;;;;;;4.17;100.00;100619.61;88335;279;24144;-70
2023/10/18 04:25:31;;;;;;;21.50;17.00;;;;;;;4.15;100.00;100618.62;88204;276;138075;-68
2023/10/18 04:27:33;;;;;;;23.30;16.70;;;;;;;4.15;100.00;100617.17;88380;282;22542;-72
2023/10/18 04:29:39;;;;;;;25.10;17.50;;;;;;;4.18;100.00;100618.70;88245;280;136851;-71
2023/10/18 04:31:41;;;;;;;22.20;16.00;;;;;;;4.22;100.00;100623.41;88548;274;22602;-69
2023/10/18 04:33:43;;;;;;;25.60;17.20;;;;;;;4.24;100.00;100620.06;88207;276;136838;-71
2023/10/18 04:35:45;;;;;;;19.20;14.10;;;;;;;4.25;100.00;100621.00;88597;274;25253;-73
2023/10/18 04:37:47;;;;;;;23.90;12.40;;;;;;;4.26;100.00;100617.74;88556;281;137054;-73
2023/10/18 04:39:49;;;;;;;22.70;15.20;;;;;;;4.32;100.00;100619.30;88570;279;22569;-75
2023/10/18 04:41:51;;;;;;;21.00;13.40;;;;;;;4.38;100.00;100617.58;88222;275;137005;-75
2023/10/18 04:46:14;;;;;;;17.40;11.40;;;;;;;4.54;100.00;100619.77;88253;276;136700;-72
2023/10/18 04:48:23;;;;;;;18.10;12.20;;;;;;;4.65;100.00;100620.66;88558;277;138994;-79
2023/10/18 04:50:33;;;;;;;23.00;13.70;;;;;;;4.77;100.00;100618.52;88404;279;22621;-82
2023/10/18 04:52:40;;;;;;;16.90;11.90;;;;;;;4.81;100.00;100606.55;88510;275;136760;-73
2023/10/18 04:54:42;;;;;;;13.70;9.50;;;;;;;5.04;100.00;100617.22;89161;275;22876;-72
2023/10/18 04:56:46;;;;;;;13.10;9.90;;;;;;;5.21;100.00;100614.04;89194;282;138107;-87
2023/10/18 04:58:48;;;;;;;14.10;10.70;;;;;;;5.29;100.00;100597.61;89901;282;22533;-87
2023/10/18 05:00:56;;;;;;;14.80;9.80;;;;;;;5.48;100.00;100610.04;88590;276;137080;-88
2023/10/18 05:03:06;;;;;;;16.10;9.60;;;;;;;5.56;100.00;100609.06;88552;275;22531;-86
2023/10/18 05:05:10;;;;;;;16.60;10.90;;;;;;;5.64;100.00;100612.20;88591;275;136826;-77
2023/10/18 05:09:18;;;;;;;13.80;7.70;;;;;;;6.17;100.00;100616.89;88671;282;137996;-79
2023/10/18 05:11:22;;;;;;;12.40;8.80;;;;;;;6.58;100.00;100617.95;88829;283;24016;-85
2023/10/18 05:13:33;;;;;;;11.90;9.60;;;;;;;6.84;100.00;100624.64;88612;279;137109;-86
2023/10/18 05:15:35;;;;;;;14.00;9.50;;;;;;;6.95;100.00;100628.96;88539;283;22537;-90
2023/10/18 05:17:42;;;;;;;15.10;10.90;;;;;;;7.00;100.00;100630.17;88902;282;137238;-79
2023/10/18 05:19:45;;;;;;;11.90;8.90;;;;;;;6.99;100.00;100631.52;88856;274;22534;-77
2023/10/18 05:21:46;;;;;;;14.60;8.80;;;;;;;6.95;100.00;100631.95;88586;275;137327;-74
2023/10/18 05:23:50;;;;;;;14.20;8.90;;;;;;;6.91;100.00;100633.80;88380;275;24172;-74
2023/10/18 05:26:39;;;;;;;11.90;7.90;;;;;;;6.89;100.00;100634.02;88170;277;137309;-78
2023/10/18 05:28:15;;;;;;;10.80;7.90;;;;;;;6.91;100.00;100637.18;88107;280;138514;-80
2023/10/18 05:30:26;;;;;;;10.10;8.70;;;;;;;6.96;99.98;100635.08;88509;274;24876;-79
2023/10/18 05:34:54;;;;;;;10.90;7.70;;;;;;;7.35;99.43;100634.80;88407;284;25175;-74
2023/10/18 05:37:14;;;;;;;12.40;8.50;;;;;;;7.50;97.39;100637.77;88120;283;137024;-77
2023/10/18 05:45:34;;;;;;;9.40;7.50;;;;;;;7.46;96.00;100634.84;88276;280;137017;-75
2023/10/18 05:47:36;;;;;;;8.20;6.50;;;;;;;7.46;96.05;100634.86;88364;276;25109;-75
2023/10/18 05:49:41;;;;;;;11.00;7.40;;;;;;;7.44;95.35;100633.17;88333;276;135867;-70
2023/10/18 05:52:16;;;;;;;9.00;8.10;;;;;;;7.37;95.34;100633.77;88343;275;25208;-72
2023/10/18 05:54:21;;;;;;;8.30;7.40;;;;;;;7.25;95.40;100633.69;88477;278;22537;-77
2023/10/18 05:56:29;;;;;;;10.40;8.30;;;;;;;7.16;95.94;100633.16;88203;274;136255;-77
2023/10/18 05:58:32;;;;;;;11.70;8.30;;;;;;;7.11;96.60;100634.03;88351;278;25283;-79
2023/10/18 06:00:37;;;;;;;11.10;9.70;;;;;;;7.10;96.62;100635.22;88623;275;136914;-75
2023/10/18 06:02:39;;;;;;;10.80;8.70;;;;;;;7.12;96.65;100636.25;88422;282;22759;-77
2023/10/18 06:04:43;;;;;;;10.20;7.30;;;;;;;7.12;96.77;100635.13;88311;275;137123;-80
2023/10/18 06:06:48;;;;;;;9.00;7.70;;;;;;;7.15;96.54;100632.73;88434;282;22707;-75
2023/10/18 06:08:50;;;;;;;10.00;6.80;;;;;;;7.18;96.43;100633.02;88313;279;136697;-78
2023/10/18 06:10:57;;;;;;;12.10;7.60;;;;;;;7.21;96.16;100632.68;88379;275;22633;-77
2023/10/18 06:13:05;;;;;;;12.90;8.80;;;;;;;7.24;95.28;100631.27;88316;276;137415;-76
2023/10/18 06:15:11;;;;;;;8.30;7.30;;;;;;;7.29;95.25;100629.54;88554;276;22534;-80
2023/10/18 06:17:46;;;;;;;13.50;7.90;;;;;;;7.28;95.15;100621.48;88431;275;136736;-77
2023/10/18 06:19:52;;;;;;;9.80;7.80;;;;;;;7.40;94.78;100633.15;88485;276;24136;-77
2023/10/18 06:21:59;;;;;;;9.10;8.00;;;;;;;7.42;94.76;100632.93;88227;276;136732;-76
2023/10/18 06:24:08;;;;;;;11.40;7.70;;;;;;;7.47;94.81;100632.05;88238;276;25343;-80
2023/10/18 06:26:28;;;;;;;8.70;7.00;;;;;;;7.53;94.39;100631.06;88447;275;25194;-78
2023/10/18 06:28:30;;;;;;;11.90;7.30;;;;;;;7.61;94.47;100629.08;88314;278;137041;-73
2023/10/18 06:30:39;;;;;;;13.40;7.60;;;;;;;7.66;94.58;100629.39;88371;279;22885;-75
2023/10/18 06:32:43;;;;;;;9.80;8.10;;;;;;;7.70;94.05;100627.87;88357;275;138313;-77
2023/10/18 06:34:45;;;;;;;13.90;8.70;;;;;;;7.70;94.07;100630.19;88358;276;24000;-74
2023/10/18 06:36:52;;;;;;;14.90;9.60;;;;;;;7.72;94.47;100628.05;88172;280;137088;-77
2023/10/18 06:38:56;;;;;;;10.80;8.10;;;;;;;7.73;94.42;100630.40;88414;279;25088;-76
2023/10/18 06:41:00;;;;;;;12.60;8.50;;;;;;;7.73;94.36;100628.81;88463;275;136713;-78
2023/10/18 06:43:08;;;;;;;10.90;8.80;;;;;;;7.74;94.42;100628.91;88631;275;25243;-73
2023/10/18 06:45:15;;;;;;;11.80;8.70;;;;;;;7.78;94.55;100628.86;88457;277;138994;-77
2023/10/18 06:47:18;;;;;;;14.60;9.10;;;;;;;7.84;94.65;100631.27;88408;275;25213;-76
2023/10/18 06:49:20;;;;;;;13.50;10.00;;;;;;;7.89;94.42;100630.27;88296;276;138407;-74
2023/10/18 06:51:33;;;;;;;14.40;8.80;;;;;;;7.96;94.36;100627.06;88385;279;22523;-77
2023/10/18 06:53:38;;;;;;;12.70;9.50;;;;;;;8.06;93.95;100625.38;88205;276;137191;-79
2023/10/18 06:55:55;;;;;;;14.20;11.40;;;;;;;8.15;93.63;100625.82;88376;280;25239;-76
2023/10/18 06:58:05;;;;;;;15.70;11.30;;;;;;;8.25;93.13;100621.20;88345;278;136144;-78
2023/10/18 07:00:11;;;;;;;19.00;11.90;;;;;;;8.33;92.81;100620.23;88366;274;136805;-79
2023/10/18 07:02:13;;;;;;;21.00;11.90;;;;;;;8.40;92.11;100619.58;88271;276;22533;-75
2023/10/18 07:04:18;;;;;;;18.00;11.70;;;;;;;8.45;91.68;100616.94;88287;276;138302;-76
2023/10/18 07:06:23;;;;;;;17.70;11.30;;;;;;;8.48;91.21;100615.74;88401;280;22533;-76
2023/10/18 07:08:40;;;;;;;14.10;10.20;;;;;;;8.50;91.03;100611.88;88364;280;136542;-74
2023/10/18 07:10:57;;;;;;;;;;;;;;;8.52;90.46;100609.40;88440;277;23347;-76
2023/10/18 07:13:24;;;;;;;19.40;11.10;;;;;;;8.52;90.28;100603.25;88177;276;122646;-77
2023/10/18 07:15:33;;;;;;;16.60;12.10;;;;;;;8.52;90.30;100601.65;88385;276;25236;-77
2023/10/18 07:17:37;;;;;;;24.30;12.70;;;;;;;8.55;89.79;100601.22;88378;280;136178;-77
2023/10/18 07:19:55;;;;;;;16.30;11.70;;;;;;;8.59;89.50;100598.76;88407;276;22648;-77
2023/10/18 07:22:06;;;;;;;22.00;11.40;;;;;;;8.62;89.21;100597.39;88837;275;137023;-78
2023/10/18 07:24:11;;;;;;;16.30;11.20;;;;;;;8.64;88.50;100594.98;88510;276;136497;-76
2023/10/18 07:26:13;;;;;;;22.20;12.00;;;;;;;8.65;87.96;100600.30;88607;280;22536;-81
2023/10/18 07:28:21;;;;;;;18.00;11.70;;;;;;;8.65;87.78;100596.09;88373;276;136729;-73
2023/10/18 07:30:42;;;;;;;20.40;12.50;;;;;;;8.69;87.94;100597.61;88422;276;22539;-78
2023/10/18 07:32:47;;;;;;;20.90;12.80;;;;;;;8.75;87.39;100599.62;88455;282;136281;-76
2023/10/18 07:34:54;;;;;;;18.30;13.50;;;;;;;8.80;87.59;100595.91;88635;275;25127;-75
2023/10/18 07:36:56;;;;;;;22.50;13.20;;;;;;;8.86;87.41;100590.85;88393;279;136101;-75
2023/10/18 07:38:58;;;;;;;18.10;11.90;;;;;;;8.93;87.35;100588.96;88465;276;24181;-79
2023/10/18 07:41:00;;;;;;;14.60;11.20;;;;;;;9.00;87.52;100587.61;88638;275;136206;-79
2023/10/18 07:43:12;;;;;;;14.60;10.10;;;;;;;9.09;85.96;100585.58;88440;279;22563;-77
2023/10/18 07:45:14;;;;;;;14.30;9.80;;;;;;;9.18;85.28;100585.25;88461;276;137874;-80
2023/10/18 07:47:19;;;;;;;12.60;9.30;;;;;;;9.28;84.85;100583.60;88407;275;22609;-79
2023/10/18 07:49:21;;;;;;;12.10;9.70;;;;;;;9.39;84.35;100577.39;88317;279;136227;-78
2023/10/18 07:51:23;;;;;;;10.70;8.20;;;;;;;9.50;83.59;100574.21;88315;276;24299;-75
2023/10/18 07:53:28;;;;;;;10.80;8.70;;;;;;;9.58;82.10;100573.33;88368;275;137259;-72
2023/10/18 07:55:37;;;;;;;9.00;7.30;;;;;;;9.65;81.61;100573.27;88499;275;22557;-75
2023/10/18 07:57:46;;;;;;;13.40;9.10;;;;;;;9.71;81.90;100572.70;88299;275;135976;-73
2023/10/18 07:59:53;;;;;;;10.50;7.30;;;;;;;9.75;81.71;100572.15;88490;280;22547;-75
2023/10/18 08:04:27;;;;;;;9.40;7.10;;;;;;;9.83;81.09;100568.60;88350;275;137792;-79
2023/10/18 08:06:33;;;;;;;15.20;8.40;;;;;;;9.85;80.91;100569.42;88388;278;22806;-76
2023/10/18 08:08:36;;;;;;;13.10;8.00;;;;;;;9.87;80.60;100568.91;88277;274;136204;-75
2023/10/18 08:10:39;;;;;;;12.70;7.70;;;;;;;9.86;80.40;100563.36;90465;274;25230;-76
2023/10/18 08:12:41;;;;;;;8.90;6.50;;;;;;;9.89;80.31;100557.35;88388;275;136672;-76
2023/10/18 08:14:46;;;;;;;13.80;7.20;;;;;;;9.93;79.81;100558.91;88363;279;22535;-77
2023/10/18 08:16:57;;;;;;;8.60;5.10;;;;;;;9.99;79.46;100559.36;88300;275;136193;-77
2023/10/18 08:18:59;;;;;;;8.10;6.90;;;;;;;10.04;79.16;100555.92;88425;279;23982;-70
2023/10/18 08:21:06;;;;;;;8.50;6.30;;;;;;;10.08;78.73;100554.02;88250;280;135993;-75
2023/10/18 08:25:31;;;;;;;5.60;4.90;;;;;;;10.22;77.99;100548.71;88481;278;136091;-74
2023/10/18 08:27:39;;;;;;;4.90;4.40;;;;;;;10.31;77.60;100549.52;88459;283;22594;-76
2023/10/18 08:29:43;;;;;;;6.60;5.20;;;;;;;10.32;77.46;100534.26;88772;274;135992;-75
2023/10/18 08:31:48;;;;;;;5.40;4.90;;;;;;;10.44;76.27;100543.40;88524;276;23491;-77
2023/10/18 08:33:54;;;;;;;5.50;4.40;;;;;;;10.50;76.49;100541.06;88472;280;136836;-78
2023/10/18 08:36:06;;;;;;;5.60;5.10;;;;;;;10.54;75.53;100538.09;88690;275;22610;-77
2023/10/18 08:38:08;;;;;;;6.30;5.00;;;;;;;10.55;75.33;100538.35;88601;276;24391;-76
2023/10/18 08:40:37;;;;;;;6.40;5.20;;;;;;;10.58;75.36;100534.45;88322;276;137775;-76
2023/10/18 08:42:33;;;;;;;4.50;4.10;;;;;;;10.62;75.00;100536.30;88381;282;24169;-74
2023/10/18 08:44:38;;;;;;;6.30;5.30;;;;;;;10.63;73.98;100531.98;89328;276;136380;-77
2023/10/18 08:48:58;;;;;;;5.70;4.80;;;;;;;10.56;74.83;100523.55;88589;278;136513;-79
2023/10/18 08:51:02;;;;;;;8.00;4.60;;;;;;;10.64;74.76;100530.32;88561;276;22540;-78
2023/10/18 08:53:05;;;;;;;;;;;;;;;10.68;74.75;100529.38;88658;282;137008;-79
2023/10/18 08:55:19;;;;;;;5.50;4.10;;;;;;;10.72;74.25;100524.63;88569;275;22552;-74
2023/10/18 08:57:34;;;;;;;7.40;4.60;;;;;;;10.74;74.35;100527.80;88434;279;136020;-75
2023/10/18 08:59:48;;;;;;;7.00;4.40;;;;;;;10.75;74.14;100525.48;88745;277;23948;-77
2023/10/18 09:02:12;;;;;;;4.00;3.60;;;;;;;10.79;73.21;100523.77;88360;282;136181;-75
2023/10/18 09:04:14;;;;;;;5.70;4.00;;;;;;;10.81;73.22;100519.30;88447;276;136426;-75
2023/10/18 09:06:30;;;;;;;4.20;3.00;;;;;;;10.85;73.23;100516.48;88134;285;22539;-76
2023/10/18 09:08:38;;;;;;;;;;;;;;;10.93;72.76;100514.69;88371;282;136063;-77
2023/10/18 09:10:48;;;;;;;4.00;3.00;;;;;;;10.96;72.54;100515.83;88340;282;25151;-73
2023/10/18 09:14:54;;;;;;;5.70;3.10;;;;;;;11.03;71.97;100505.08;88345;280;22537;-76
2023/10/18 09:17:00;;;;;;;10.30;3.70;;;;;;;11.08;71.65;100496.65;88196;276;136279;-72
2023/10/18 09:19:04;;;;;;;3.90;3.00;;;;;;;11.12;71.56;100491.73;88277;276;24358;-74
2023/10/18 09:21:09;;;;;;;7.10;3.20;;;;;;;11.13;71.08;100488.44;88248;278;136135;-75
2023/10/18 09:23:19;;;;;;;4.80;3.10;;;;;;;11.13;71.31;100481.77;88267;276;22565;-76
2023/10/18 09:25:24;;;;;;;5.10;2.90;;;;;;;11.18;70.17;100478.86;88392;275;136676;-75
2023/10/18 09:27:27;;;;;;;5.30;2.40;;;;;;;11.26;70.33;100475.52;88388;282;24613;-79
2023/10/18 09:29:29;;;;;;;4.40;2.80;;;;;;;11.33;69.55;100479.02;88243;276;136305;-77
2023/10/18 09:31:32;;;;;;;4.40;2.90;;;;;;;11.37;68.25;100478.13;88503;284;22553;-76
2023/10/18 09:33:35;;;;;;;4.30;2.60;;;;;;;11.36;67.11;100475.40;88145;283;139025;-77
2023/10/18 09:35:39;;;;;;;3.80;3.40;;;;;;;11.31;65.71;100474.90;88268;277;22556;-76
2023/10/18 09:37:41;;;;;;;4.50;3.30;;;;;;;11.27;65.80;100468.13;88152;282;136456;-76
2023/10/18 09:39:43;;;;;;;5.90;3.20;;;;;;;11.26;66.59;100469.86;88299;282;22535;-74
2023/10/18 09:41:47;;;;;;;5.00;3.00;;;;;;;11.28;66.68;100464.23;88107;282;136191;-76
2023/10/18 09:43:49;;;;;;;9.70;3.50;;;;;;;11.33;65.83;100459.85;88812;278;22545;-77
2023/10/18 09:45:54;;;;;;;6.00;4.50;;;;;;;11.30;65.31;100453.16;89990;278;137113;-71
2023/10/18 09:47:58;;;;;;;3.60;3.30;;;;;;;11.30;66.10;100459.11;88628;282;22546;-75
2023/10/18 09:50:07;;;;;;;3.60;3.10;;;;;;;11.37;65.71;100454.30;88421;279;137060;-72
2023/10/18 09:52:12;;;;;;;3.20;2.80;;;;;;;11.47;65.54;100443.64;88182;275;136792;-71
2023/10/18 09:54:21;;;;;;;5.20;3.00;;;;;;;11.57;64.99;100439.70;88222;279;23416;-74
2023/10/18 09:56:33;;;;;;;4.70;2.50;;;;;;;11.64;64.14;100439.31;88244;279;136879;-77
2023/10/18 09:58:41;;;;;;;4.90;2.90;;;;;;;11.62;62.80;100434.98;87887;282;632768;-77
2023/10/18 10:00:56;;;;;;;3.20;2.40;;;;;;;11.54;63.05;100437.45;88285;275;136190;-79
2023/10/18 10:02:59;;;;;;;4.50;2.90;;;;;;;11.45;62.67;100434.01;88376;275;25134;-79
2023/10/18 10:05:06;;;;;;;4.70;2.80;;;;;;;11.36;63.57;100430.94;88211;278;137916;-79
2023/10/18 10:09:29;;;;;;;2.50;2.10;;;;;;;11.28;64.33;100428.31;88237;273;137623;-72
2023/10/18 10:11:38;;;;;;;2.50;2.30;;;;;;;11.22;62.24;100429.29;88463;276;22540;-74
2023/10/18 10:13:44;;;;;;;4.00;2.70;;;;;;;11.09;62.82;100427.17;88203;279;137405;-73
2023/10/18 10:15:54;;;;;;;4.60;2.30;;;;;;;10.96;63.38;100424.99;88691;276;25155;-75